createdAt,value
2018-09-29T00:00:39.160Z,1.40
2018-09-29T00:01:39.147Z,1.60
2018-09-29T00:02:39.148Z,1.40
2018-09-29T00:03:39.123Z,1.40
2018-09-29T00:04:39.120Z,1.30
2018-09-29T00:05:39.111Z,1.40
2018-09-29T00:06:39.115Z,1.10
2018-09-29T00:07:39.096Z,0.90
2018-09-29T00:08:39.072Z,1.50
2018-09-29T00:09:40.712Z,1.00
2018-09-29T00:10:39.045Z,1.20
2018-09-29T00:11:39.039Z,1.50
2018-09-29T00:12:39.056Z,1.10
2018-09-29T00:13:39.016Z,2.10
2018-09-29T00:14:46.029Z,2.10
2018-09-29T00:15:38.994Z,1.10
2018-09-29T00:16:39.037Z,1.10
2018-09-29T00:17:38.971Z,1.00
2018-09-29T00:18:38.969Z,1.10
2018-09-29T00:19:45.970Z,1.30
2018-09-29T00:20:38.933Z,1.00
2018-09-29T00:21:38.929Z,1.50
2018-09-29T00:22:38.917Z,1.40
2018-09-29T00:23:38.916Z,1.00
2018-09-29T00:24:45.923Z,1.00
2018-09-29T00:25:38.878Z,1.60
2018-09-29T00:26:38.867Z,1.10
2018-09-29T00:27:38.855Z,1.30
2018-09-29T00:28:38.858Z,0.90
2018-09-29T00:29:38.833Z,1.90
2018-09-29T00:30:38.823Z,1.70
2018-09-29T00:31:38.812Z,1.30
2018-09-29T00:32:38.800Z,1.60
2018-09-29T00:33:38.805Z,1.10
2018-09-29T00:34:38.777Z,0.80
2018-09-29T00:35:38.775Z,1.10
2018-09-29T00:36:38.759Z,0.90
2018-09-29T00:37:38.746Z,1.10
2018-09-29T00:38:38.771Z,1.20
2018-09-29T00:39:38.724Z,1.00
2018-09-29T00:40:38.713Z,1.00
2018-09-29T00:41:38.701Z,1.30
2018-09-29T00:42:38.695Z,1.10
2018-09-29T00:43:38.705Z,1.50
2018-09-29T00:44:38.665Z,1.00
2018-09-29T00:45:38.659Z,1.00
2018-09-29T00:46:38.645Z,1.70
2018-09-29T00:47:38.635Z,1.30
2018-09-29T00:48:38.637Z,1.00
2018-09-29T00:49:38.616Z,1.40
2018-09-29T00:50:38.606Z,1.10
2018-09-29T00:51:38.589Z,1.50
2018-09-29T00:52:38.577Z,1.40
2018-09-29T00:53:38.579Z,1.50
2018-09-29T00:54:38.554Z,1.40
2018-09-29T00:55:38.543Z,1.30
2018-09-29T00:56:38.552Z,1.30
2018-09-29T00:57:38.526Z,1.00
2018-09-29T00:58:38.527Z,1.20
2018-09-29T00:59:38.502Z,1.00
2018-09-29T01:00:38.490Z,1.50
2018-09-29T01:01:38.480Z,1.40
2018-09-29T01:02:38.468Z,1.40
2018-09-29T01:03:38.483Z,1.10
2018-09-29T01:04:38.445Z,1.30
2018-09-29T01:05:38.434Z,1.50
2018-09-29T01:06:38.422Z,1.30
2018-09-29T01:07:38.411Z,1.30
2018-09-29T01:08:38.416Z,1.10
2018-09-29T01:09:38.390Z,1.00
2018-09-29T01:10:38.393Z,1.30
2018-09-29T01:11:38.370Z,1.20
2018-09-29T01:12:38.356Z,1.00
2018-09-29T01:13:38.369Z,1.30
2018-09-29T01:14:38.348Z,1.20
2018-09-29T01:15:38.323Z,1.30
2018-09-29T01:16:38.310Z,1.50
2018-09-29T01:17:38.317Z,1.50
2018-09-29T01:18:38.306Z,1.40
2018-09-29T01:19:38.278Z,1.60
2018-09-29T01:20:38.273Z,1.30
2018-09-29T01:21:38.257Z,1.60
2018-09-29T01:22:38.255Z,1.80
2018-09-29T01:23:38.264Z,1.50
2018-09-29T01:24:38.222Z,1.40
2018-09-29T01:25:38.210Z,1.60
2018-09-29T01:26:38.200Z,1.70
2018-09-29T01:27:38.193Z,1.50
2018-09-29T01:28:38.196Z,1.40
2018-09-29T01:29:46.839Z,1.60
2018-09-29T01:30:38.155Z,1.70
2018-09-29T01:31:38.145Z,1.40
2018-09-29T01:32:38.132Z,1.30
2018-09-29T01:33:38.121Z,1.40
2018-09-29T01:34:38.124Z,1.30
2018-09-29T01:35:38.099Z,1.40
2018-09-29T01:36:38.103Z,1.30
2018-09-29T01:37:38.077Z,1.60
2018-09-29T01:38:38.068Z,1.90
2018-09-29T01:39:38.087Z,1.90
2018-09-29T01:40:38.047Z,1.90
2018-09-29T01:41:38.036Z,1.60
2018-09-29T01:42:38.022Z,1.40
2018-09-29T01:43:38.014Z,1.60
2018-09-29T01:44:38.026Z,1.40
2018-09-29T01:45:37.988Z,1.70
2018-09-29T01:46:37.978Z,1.80
2018-09-29T01:47:37.965Z,1.60
2018-09-29T01:48:37.954Z,1.50
2018-09-29T01:49:37.956Z,1.70
2018-09-29T01:50:37.939Z,1.40
2018-09-29T01:51:37.921Z,2.00
2018-09-29T01:52:37.909Z,1.60
2018-09-29T01:53:37.939Z,1.40
2018-09-29T01:54:37.905Z,1.60
2018-09-29T01:55:37.885Z,1.50
2018-09-29T01:56:37.873Z,1.90
2018-09-29T01:57:37.855Z,1.50
2018-09-29T01:58:37.844Z,1.70
2018-09-29T01:59:37.849Z,1.50
2018-09-29T02:00:37.823Z,1.80
2018-09-29T02:01:37.816Z,1.70
2018-09-29T02:02:37.805Z,1.40
2018-09-29T02:03:37.788Z,2.10
2018-09-29T02:04:37.791Z,1.60
2018-09-29T02:05:37.767Z,1.60
2018-09-29T02:06:37.756Z,1.40
2018-09-29T02:07:37.744Z,2.00
2018-09-29T02:08:37.739Z,1.90
2018-09-29T02:09:37.734Z,1.90
2018-09-29T02:10:37.717Z,1.40
2018-09-29T02:11:37.698Z,1.80
2018-09-29T02:12:52.330Z,1.70
2018-09-29T02:13:37.676Z,1.50
2018-09-29T02:14:37.686Z,1.80
2018-09-29T02:15:37.658Z,1.50
2018-09-29T02:16:37.642Z,1.60
2018-09-29T02:17:37.635Z,1.70
2018-09-29T02:18:37.619Z,1.90
2018-09-29T02:19:37.625Z,1.50
2018-09-29T02:20:37.603Z,1.40
2018-09-29T02:21:37.587Z,1.80
2018-09-29T02:22:37.575Z,1.70
2018-09-29T02:23:37.565Z,1.40
2018-09-29T02:24:37.566Z,1.50
2018-09-29T02:25:37.544Z,1.50
2018-09-29T02:26:37.535Z,1.80
2018-09-29T02:27:37.521Z,2.00
2018-09-29T02:28:37.520Z,1.90
2018-09-29T02:29:44.550Z,1.80
2018-09-29T02:30:37.486Z,1.50
2018-09-29T02:31:37.475Z,1.60
2018-09-29T02:32:37.465Z,1.90
2018-09-29T02:33:37.453Z,1.50
2018-09-29T02:34:37.457Z,2.30
2018-09-29T02:35:37.432Z,1.40
2018-09-29T02:36:37.418Z,1.30
2018-09-29T02:37:37.408Z,1.80
2018-09-29T02:38:37.401Z,1.30
2018-09-29T02:39:37.409Z,1.50
2018-09-29T02:40:37.384Z,1.50
2018-09-29T02:41:37.389Z,1.60
2018-09-29T02:42:37.353Z,1.60
2018-09-29T02:43:37.342Z,1.40
2018-09-29T02:44:37.347Z,2.00
2018-09-29T02:45:37.333Z,1.30
2018-09-29T02:46:37.310Z,1.60
2018-09-29T02:47:37.298Z,1.30
2018-09-29T02:48:37.285Z,1.20
2018-09-29T02:49:37.294Z,1.40
2018-09-29T02:50:37.281Z,1.20
2018-09-29T02:51:37.254Z,1.40
2018-09-29T02:52:37.259Z,1.80
2018-09-29T02:53:37.231Z,1.70
2018-09-29T02:54:37.221Z,1.80
2018-09-29T02:55:37.230Z,1.50
2018-09-29T02:56:37.203Z,1.30
2018-09-29T02:57:37.186Z,1.60
2018-09-29T02:58:37.174Z,1.60
2018-09-29T02:59:37.163Z,1.50
2018-09-29T03:00:37.166Z,1.50
2018-09-29T03:01:37.149Z,1.60
2018-09-29T03:02:37.132Z,1.60
2018-09-29T03:03:37.120Z,1.10
2018-09-29T03:04:37.108Z,1.80
2018-09-29T03:05:37.113Z,1.40
2018-09-29T03:06:37.090Z,1.40
2018-09-29T03:07:37.081Z,1.70
2018-09-29T03:08:37.104Z,1.50
2018-09-29T03:09:37.052Z,1.30
2018-09-29T03:10:37.059Z,1.60
2018-09-29T03:11:37.038Z,1.50
2018-09-29T03:12:37.020Z,1.20
2018-09-29T03:13:37.009Z,1.40
2018-09-29T03:14:37.017Z,1.70
2018-09-29T03:15:37.004Z,1.20
2018-09-29T03:16:36.976Z,1.00
2018-09-29T03:17:36.964Z,1.90
2018-09-29T03:18:36.953Z,1.20
2018-09-29T03:19:36.943Z,1.10
2018-09-29T03:20:36.966Z,1.20
2018-09-29T03:21:36.924Z,1.70
2018-09-29T03:22:36.910Z,1.50
2018-09-29T03:23:36.902Z,1.70
2018-09-29T03:24:36.886Z,1.80
2018-09-29T03:25:36.895Z,1.50
2018-09-29T03:26:36.866Z,1.10
2018-09-29T03:27:36.895Z,1.50
2018-09-29T03:28:36.844Z,1.70
2018-09-29T03:29:43.864Z,1.40
2018-09-29T03:30:36.832Z,1.50
2018-09-29T03:31:36.852Z,1.60
2018-09-29T03:32:36.798Z,1.30
2018-09-29T03:33:36.785Z,1.50
2018-09-29T03:34:43.807Z,2.50
2018-09-29T03:35:36.781Z,1.30
2018-09-29T03:36:36.752Z,1.90
2018-09-29T03:37:36.743Z,1.40
2018-09-29T03:38:36.730Z,1.70
2018-09-29T03:39:36.720Z,1.60
2018-09-29T03:40:38.453Z,1.50
2018-09-29T03:41:36.696Z,1.50
2018-09-29T03:42:36.688Z,1.60
2018-09-29T03:43:36.684Z,1.70
2018-09-29T03:44:36.663Z,1.70
2018-09-29T03:45:36.679Z,1.70
2018-09-29T03:46:36.642Z,1.90
2018-09-29T03:47:36.631Z,1.60
2018-09-29T03:48:36.628Z,1.40
2018-09-29T03:49:36.609Z,1.80
2018-09-29T03:50:36.597Z,1.40
2018-09-29T03:51:36.607Z,1.40
2018-09-29T03:52:36.577Z,1.60
2018-09-29T03:53:36.637Z,1.60
2018-09-29T03:54:36.565Z,1.80
2018-09-29T03:55:36.542Z,1.70
2018-09-29T03:56:36.552Z,2.10
2018-09-29T03:57:36.521Z,1.30
2018-09-29T03:58:36.512Z,1.40
2018-09-29T03:59:36.497Z,2.00
2018-09-29T04:00:36.493Z,1.70
2018-09-29T04:01:36.492Z,1.30
2018-09-29T04:02:36.465Z,2.10
2018-09-29T04:03:36.452Z,1.70
2018-09-29T04:04:36.443Z,1.80
2018-09-29T04:05:36.437Z,1.60
2018-09-29T04:06:36.458Z,2.20
2018-09-29T04:07:36.408Z,1.90
2018-09-29T04:08:36.398Z,1.60
2018-09-29T04:09:36.390Z,1.70
2018-09-29T04:10:36.377Z,1.70
2018-09-29T04:11:36.364Z,1.60
2018-09-29T04:12:36.379Z,1.50
2018-09-29T04:13:36.343Z,1.90
2018-09-29T04:14:36.332Z,2.00
2018-09-29T04:15:36.322Z,1.70
2018-09-29T04:16:36.309Z,2.10
2018-09-29T04:17:36.312Z,1.80
2018-09-29T04:18:36.301Z,1.60
2018-09-29T04:19:36.310Z,1.70
2018-09-29T04:20:36.265Z,1.40
2018-09-29T04:21:36.258Z,1.50
2018-09-29T04:22:36.255Z,1.90
2018-09-29T04:23:36.238Z,1.90
2018-09-29T04:24:36.229Z,1.70
2018-09-29T04:25:36.211Z,2.30
2018-09-29T04:26:36.199Z,1.50
2018-09-29T04:27:36.202Z,1.80
2018-09-29T04:28:36.177Z,1.60
2018-09-29T04:29:36.165Z,1.60
2018-09-29T04:30:36.168Z,1.60
2018-09-29T04:31:36.143Z,1.80
2018-09-29T04:32:36.147Z,3.00
2018-09-29T04:33:36.120Z,1.90
2018-09-29T04:34:36.113Z,1.60
2018-09-29T04:35:36.098Z,1.90
2018-09-29T04:36:36.093Z,1.30
2018-09-29T04:37:36.105Z,1.90
2018-09-29T04:38:36.066Z,2.90
2018-09-29T04:39:36.054Z,2.50
2018-09-29T04:40:43.078Z,3.40
2018-09-29T04:41:36.031Z,3.10
2018-09-29T04:42:36.020Z,3.10
2018-09-29T04:43:36.025Z,3.00
2018-09-29T04:44:36.002Z,2.60
2018-09-29T04:45:35.986Z,3.10
2018-09-29T04:46:35.975Z,2.30
2018-09-29T04:47:35.966Z,1.80
2018-09-29T04:48:35.971Z,2.20
2018-09-29T04:49:35.953Z,2.20
2018-09-29T04:50:35.933Z,2.40
2018-09-29T04:51:35.951Z,2.90
2018-09-29T04:52:35.912Z,3.10
2018-09-29T04:53:35.911Z,3.20
2018-09-29T04:54:35.912Z,2.40
2018-09-29T04:55:35.876Z,2.30
2018-09-29T04:56:35.871Z,2.40
2018-09-29T04:57:35.857Z,2.50
2018-09-29T04:58:35.856Z,2.80
2018-09-29T04:59:35.843Z,2.60
2018-09-29T05:00:35.824Z,2.00
2018-09-29T05:01:35.811Z,2.40
2018-09-29T05:02:35.799Z,2.20
2018-09-29T05:03:35.807Z,3.40
2018-09-29T05:04:35.778Z,3.20
2018-09-29T05:05:35.766Z,2.70
2018-09-29T05:06:35.823Z,2.80
2018-09-29T05:07:35.748Z,2.70
2018-09-29T05:08:35.766Z,2.80
2018-09-29T05:09:35.724Z,2.30
2018-09-29T05:10:35.751Z,2.60
2018-09-29T05:11:35.699Z,2.20
2018-09-29T05:12:35.705Z,2.80
2018-09-29T05:13:35.687Z,2.60
2018-09-29T05:14:35.684Z,2.30
2018-09-29T05:15:35.667Z,1.90
2018-09-29T05:16:35.652Z,2.80
2018-09-29T05:17:35.635Z,1.80
2018-09-29T05:18:35.621Z,1.70
2018-09-29T05:19:35.623Z,2.30
2018-09-29T05:20:35.599Z,2.30
2018-09-29T05:21:35.595Z,1.80
2018-09-29T05:22:35.582Z,2.30
2018-09-29T05:23:35.568Z,2.00
2018-09-29T05:24:35.568Z,2.80
2018-09-29T05:25:35.546Z,2.60
2018-09-29T05:26:35.536Z,2.00
2018-09-29T05:27:35.529Z,2.30
2018-09-29T05:28:35.515Z,2.60
2018-09-29T05:29:35.515Z,2.30
2018-09-29T05:30:35.490Z,2.80
2018-09-29T05:31:35.478Z,2.30
2018-09-29T05:32:35.467Z,3.10
2018-09-29T05:33:35.474Z,2.30
2018-09-29T05:34:35.464Z,2.60
2018-09-29T05:35:35.433Z,2.20
2018-09-29T05:36:35.423Z,2.30
2018-09-29T05:37:35.414Z,2.50
2018-09-29T05:38:35.531Z,2.20
2018-09-29T05:39:35.437Z,2.50
2018-09-29T05:40:42.405Z,2.80
2018-09-29T05:41:35.367Z,2.20
2018-09-29T05:42:35.356Z,2.60
2018-09-29T05:43:35.344Z,2.50
2018-09-29T05:44:35.350Z,2.70
2018-09-29T05:45:35.324Z,2.00
2018-09-29T05:46:35.324Z,2.50
2018-09-29T05:47:35.313Z,2.60
2018-09-29T05:48:35.290Z,2.00
2018-09-29T05:49:35.308Z,2.30
2018-09-29T05:50:35.272Z,2.60
2018-09-29T05:51:35.272Z,2.20
2018-09-29T05:52:35.252Z,2.50
2018-09-29T05:53:35.234Z,2.10
2018-09-29T05:54:35.224Z,2.10
2018-09-29T05:55:35.234Z,1.70
2018-09-29T05:56:35.210Z,1.60
2018-09-29T05:57:35.190Z,2.00
2018-09-29T05:58:35.188Z,2.20
2018-09-29T05:59:35.169Z,2.30
2018-09-29T06:00:35.245Z,2.40
2018-09-29T06:01:35.146Z,1.60
2018-09-29T06:02:35.138Z,3.00
2018-09-29T06:03:35.123Z,2.30
2018-09-29T06:04:35.114Z,2.50
2018-09-29T06:05:35.203Z,2.50
2018-09-29T06:06:35.091Z,2.00
2018-09-29T06:07:35.268Z,2.30
2018-09-29T06:08:35.078Z,2.40
2018-09-29T06:09:35.058Z,2.30
2018-09-29T06:10:35.059Z,2.00
2018-09-29T06:11:35.035Z,2.20
2018-09-29T06:12:35.024Z,2.40
2018-09-29T06:13:35.013Z,2.10
2018-09-29T06:14:35.014Z,2.00
2018-09-29T06:15:35.004Z,2.30
2018-09-29T06:16:34.980Z,1.80
2018-09-29T06:17:34.968Z,1.60
2018-09-29T06:18:34.957Z,1.70
2018-09-29T06:19:34.948Z,1.30
2018-09-29T06:20:35.328Z,2.20
2018-09-29T06:21:34.929Z,2.10
2018-09-29T06:22:34.913Z,1.90
2018-09-29T06:23:34.907Z,2.10
2018-09-29T06:24:34.893Z,1.90
2018-09-29T06:25:34.883Z,2.60
2018-09-29T06:26:34.882Z,2.20
2018-09-29T06:27:34.859Z,2.20
2018-09-29T06:28:34.855Z,2.40
2018-09-29T06:29:34.835Z,1.70
2018-09-29T06:30:34.824Z,2.30
2018-09-29T06:31:34.830Z,2.80
2018-09-29T06:32:34.803Z,1.70
2018-09-29T06:33:34.792Z,2.00
2018-09-29T06:34:34.788Z,1.80
2018-09-29T06:35:34.767Z,2.10
2018-09-29T06:36:34.774Z,2.50
2018-09-29T06:37:37.446Z,1.90
2018-09-29T06:38:34.734Z,2.40
2018-09-29T06:39:34.846Z,1.70
2018-09-29T06:40:41.774Z,3.30
2018-09-29T06:41:34.723Z,2.10
2018-09-29T06:42:34.691Z,1.60
2018-09-29T06:43:34.679Z,1.50
2018-09-29T06:44:34.671Z,1.40
2018-09-29T06:45:34.659Z,2.00
2018-09-29T06:46:41.697Z,1.70
2018-09-29T06:47:34.649Z,1.70
2018-09-29T06:48:34.624Z,1.90
2018-09-29T06:49:34.615Z,1.60
2018-09-29T06:50:34.636Z,2.00
2018-09-29T06:51:34.655Z,1.90
2018-09-29T06:52:34.608Z,1.80
2018-09-29T06:53:36.536Z,1.80
2018-09-29T06:54:34.618Z,2.10
2018-09-29T06:55:34.545Z,2.10
2018-09-29T06:56:34.555Z,2.20
2018-09-29T06:57:34.552Z,1.70
2018-09-29T06:58:34.528Z,2.40
2018-09-29T06:59:34.501Z,2.20
2018-09-29T07:00:34.493Z,2.80
2018-09-29T07:01:34.503Z,2.10
2018-09-29T07:02:34.481Z,2.50
2018-09-29T07:03:34.456Z,2.60
2018-09-29T07:04:34.469Z,2.90
2018-09-29T07:05:34.434Z,2.10
2018-09-29T07:06:34.424Z,2.30
2018-09-29T07:07:34.430Z,2.70
2018-09-29T07:08:34.400Z,2.30
2018-09-29T07:09:34.389Z,2.80
2018-09-29T07:10:34.390Z,2.70
2018-09-29T07:11:34.368Z,2.90
2018-09-29T07:12:34.369Z,3.40
2018-09-29T07:13:34.345Z,3.00
2018-09-29T07:14:34.334Z,3.00
2018-09-29T07:15:34.328Z,3.00
2018-09-29T07:16:34.317Z,3.30
2018-09-29T07:17:34.339Z,2.60
2018-09-29T07:18:34.288Z,3.00
2018-09-29T07:19:34.283Z,2.40
2018-09-29T07:20:34.267Z,2.20
2018-09-29T07:21:34.330Z,2.40
2018-09-29T07:22:34.271Z,2.60
2018-09-29T07:23:34.236Z,2.20
2018-09-29T07:24:34.263Z,2.00
2018-09-29T07:25:34.268Z,2.60
2018-09-29T07:26:34.233Z,2.30
2018-09-29T07:27:34.260Z,1.70
2018-09-29T07:28:34.242Z,2.60
2018-09-29T07:29:34.199Z,2.20
2018-09-29T07:30:34.196Z,1.80
2018-09-29T07:31:34.185Z,2.30
2018-09-29T07:32:34.200Z,1.60
2018-09-29T07:33:34.139Z,2.40
2018-09-29T07:34:34.147Z,2.40
2018-09-29T07:35:34.100Z,1.80
2018-09-29T07:36:34.098Z,1.90
2018-09-29T07:37:34.083Z,2.10
2018-09-29T07:38:34.085Z,2.70
2018-09-29T07:39:34.057Z,2.10
2018-09-29T07:40:34.051Z,1.70
2018-09-29T07:41:34.033Z,2.20
2018-09-29T07:42:34.043Z,2.10
2018-09-29T07:43:34.024Z,1.70
2018-09-29T07:44:34.017Z,2.20
2018-09-29T07:45:33.987Z,2.30
2018-09-29T07:46:41.540Z,1.80
2018-09-29T07:47:33.966Z,2.60
2018-09-29T07:48:33.975Z,2.50
2018-09-29T07:49:48.548Z,2.20
2018-09-29T07:59:08.037Z,1.40
2018-09-29T08:03:23.646Z,1.80
2018-09-29T08:05:25.754Z,2.00
2018-09-29T08:10:30.198Z,1.20
2018-09-29T08:14:23.302Z,1.50
2018-09-29T13:43:12.298Z,5.20
2018-09-29T13:44:12.257Z,1.70
2018-09-29T13:45:12.208Z,0.90
2018-09-29T13:46:12.201Z,1.30
2018-09-29T13:47:12.185Z,0.80
2018-09-29T13:48:12.205Z,1.00
2018-09-29T13:49:12.165Z,0.70
2018-09-29T13:50:12.156Z,0.70
2018-09-29T13:51:12.146Z,0.90
2018-09-29T13:52:12.133Z,1.30
2018-09-29T13:53:12.168Z,0.80
2018-09-29T13:54:12.114Z,0.60
2018-09-29T13:55:12.104Z,0.80
2018-09-29T13:56:12.097Z,1.20
2018-09-29T13:57:12.082Z,1.60
2018-09-29T13:58:12.087Z,0.80
2018-09-29T13:59:12.061Z,0.90
2018-09-29T14:00:12.053Z,0.60
2018-09-29T14:01:12.040Z,1.00
2018-09-29T14:02:12.048Z,0.90
2018-09-29T14:03:12.045Z,1.00
2018-09-29T14:04:12.010Z,0.80
2018-09-29T14:05:11.997Z,0.80
2018-09-29T14:06:11.984Z,0.70
2018-09-29T14:07:11.981Z,2.00
2018-09-29T14:08:11.995Z,1.20
2018-09-29T14:09:11.951Z,2.00
2018-09-29T14:10:11.945Z,2.40
2018-09-29T14:11:11.930Z,0.90
2018-09-29T14:12:11.923Z,0.70
2018-09-29T14:13:11.909Z,4.10
2018-09-29T14:14:11.914Z,5.40
2018-09-29T14:15:11.888Z,1.90
2018-09-29T14:16:11.879Z,2.60
2018-09-29T14:17:11.873Z,1.30
2018-09-29T14:31:18.915Z,1.20
2018-09-29T14:32:18.898Z,1.20
2018-09-29T14:33:18.884Z,0.80
2018-09-29T14:34:18.888Z,0.70
2018-09-29T14:35:18.859Z,0.60
2018-09-29T14:36:18.864Z,0.60
2018-09-29T14:37:18.890Z,0.60
2018-09-29T14:38:18.924Z,0.60
2018-09-29T14:39:18.924Z,1.10
2018-09-29T14:40:18.822Z,0.60
2018-09-29T14:41:18.841Z,0.80
2018-09-29T14:42:18.943Z,0.70
2018-09-29T14:43:18.828Z,0.70
2018-09-29T14:44:18.791Z,0.70
2018-09-29T14:45:18.750Z,0.70
2018-09-29T14:46:18.740Z,0.50
2018-09-29T14:47:18.728Z,1.00
2018-09-29T14:48:18.728Z,0.70
2018-09-29T14:49:18.703Z,0.60
2018-09-29T14:50:18.709Z,0.70
2018-09-29T14:51:18.681Z,0.90
2018-09-29T14:52:18.674Z,0.80
2018-09-29T14:53:18.661Z,0.80
2018-09-29T14:54:18.745Z,0.90
2018-09-29T14:55:18.654Z,0.90
2018-09-29T14:56:18.623Z,7.00
2018-09-29T14:57:18.624Z,0.90
2018-09-29T14:58:18.603Z,0.90
2018-09-29T14:59:18.592Z,1.10
2018-09-29T15:00:18.595Z,0.70
2018-09-29T15:01:18.569Z,0.90
2018-09-29T15:02:18.558Z,0.80
2018-09-29T15:03:18.546Z,1.00
2018-09-29T15:04:18.593Z,0.80
2018-09-29T15:05:18.547Z,0.90
2018-09-29T15:06:18.510Z,0.80
2018-09-29T15:07:18.500Z,0.80
2018-09-29T15:08:18.493Z,0.80
2018-09-29T15:09:18.478Z,0.70
2018-09-29T15:10:18.646Z,0.80
2018-09-29T15:11:18.477Z,0.70
2018-09-29T15:12:18.446Z,0.70
2018-09-29T15:13:18.430Z,0.70
2018-09-29T15:14:18.421Z,0.90
2018-09-29T15:15:18.407Z,0.90
2018-09-29T15:16:18.412Z,0.90
2018-09-29T15:17:18.388Z,0.60
2018-09-29T15:18:18.376Z,1.10
2018-09-29T15:19:18.379Z,0.60
2018-09-29T15:20:18.392Z,0.80
2018-09-29T15:21:18.363Z,0.90
2018-09-29T15:22:18.330Z,0.80
2018-09-29T15:23:18.316Z,0.70
2018-09-29T15:24:18.312Z,0.70
2018-09-29T15:25:18.294Z,0.60
2018-09-29T15:26:18.296Z,0.50
2018-09-29T15:27:18.273Z,0.70
2018-09-29T15:28:18.263Z,1.10
2018-09-29T15:29:18.254Z,0.80
2018-09-29T15:30:18.237Z,0.80
2018-09-29T15:31:18.243Z,0.70
2018-09-29T15:32:18.222Z,0.90
2018-09-29T15:33:18.204Z,0.70
2018-09-29T15:34:18.193Z,0.60
2018-09-29T15:35:18.183Z,0.80
2018-09-29T15:36:18.197Z,1.10
2018-09-29T15:37:18.165Z,1.00
2018-09-29T15:38:18.153Z,1.80
2018-09-29T15:39:18.137Z,1.50
2018-09-29T15:40:18.127Z,2.20
2018-09-29T15:41:18.115Z,1.00
2018-09-29T15:42:18.149Z,0.80
2018-09-29T15:43:18.094Z,0.60
2018-09-29T15:44:18.082Z,0.90
2018-09-29T15:45:18.071Z,0.90
2018-09-29T15:46:18.059Z,0.90
2018-09-29T15:47:18.061Z,1.00
2018-09-29T15:48:18.037Z,1.10
2018-09-29T15:49:18.029Z,1.00
2018-09-29T15:50:18.015Z,0.70
2018-09-29T15:51:18.002Z,0.90
2018-09-29T15:52:18.008Z,0.80
2018-09-29T15:53:17.980Z,0.70
2018-09-29T15:54:17.968Z,0.70
2018-09-29T15:55:17.970Z,0.70
2018-09-29T15:56:17.949Z,0.90
2018-09-29T15:57:17.949Z,5.00
2018-09-29T15:58:17.924Z,8.40
2018-09-29T15:59:17.914Z,3.30
2018-09-29T16:00:17.901Z,2.50
2018-09-29T16:01:17.891Z,1.30
2018-09-29T16:02:18.324Z,0.90
2018-09-29T16:03:17.868Z,1.30
2018-09-29T16:04:17.858Z,2.30
2018-09-29T16:05:17.849Z,4.30
2018-09-29T16:06:17.835Z,2.00
2018-09-29T16:07:17.827Z,1.20
2018-09-29T16:08:17.825Z,1.50
2018-09-29T16:09:17.803Z,1.60
2018-09-29T16:10:17.788Z,1.10
2018-09-29T16:11:17.782Z,0.60
2018-09-29T16:12:17.767Z,2.00
2018-09-29T16:13:17.768Z,3.10
2018-09-29T16:14:17.746Z,1.70
2018-09-29T16:15:17.734Z,2.00
2018-09-29T16:16:17.722Z,1.90
2018-09-29T16:17:17.717Z,0.90
2018-09-29T16:18:17.716Z,0.80
2018-09-29T16:19:17.690Z,0.80
2018-09-29T16:20:17.675Z,0.70
2018-09-29T16:21:17.663Z,0.90
2018-09-29T16:22:17.658Z,0.90
2018-09-29T16:23:17.661Z,1.00
2018-09-29T16:24:17.631Z,0.50
2018-09-29T16:25:17.622Z,0.70
2018-09-29T16:26:17.615Z,0.80
2018-09-29T16:27:17.600Z,0.80
2018-09-29T16:28:17.598Z,0.60
2018-09-29T16:29:17.572Z,0.80
2018-09-29T16:30:17.561Z,0.80
2018-09-29T16:31:17.553Z,0.90
2018-09-29T16:32:17.570Z,0.70
2018-09-29T16:33:17.592Z,0.60
2018-09-29T16:34:17.520Z,0.80
2018-09-29T16:35:17.518Z,0.80
2018-09-29T16:36:17.520Z,0.80
2018-09-29T16:37:17.480Z,0.80
2018-09-29T16:38:17.533Z,0.70
2018-09-29T16:39:17.477Z,0.60
2018-09-29T16:40:17.449Z,0.90
2018-09-29T16:41:17.447Z,1.30
2018-09-29T16:42:17.426Z,0.90
2018-09-29T16:43:17.437Z,1.30
2018-09-29T16:44:17.418Z,1.20
2018-09-29T16:45:17.392Z,1.50
2018-09-29T16:46:17.380Z,1.60
2018-09-29T16:47:17.370Z,1.90
2018-09-29T16:48:17.357Z,1.90
2018-09-29T16:49:17.362Z,1.60
2018-09-29T16:50:17.335Z,1.70
2018-09-29T16:51:17.323Z,1.90
2018-09-29T16:52:17.312Z,2.00
2018-09-29T16:53:17.308Z,1.50
2018-09-29T16:54:17.307Z,1.90
2018-09-29T16:55:17.285Z,1.90
2018-09-29T16:56:17.266Z,1.80
2018-09-29T16:57:17.257Z,2.10
2018-09-29T16:58:17.245Z,3.40
2018-09-29T16:59:17.252Z,3.40
2018-09-29T17:00:17.236Z,4.20
2018-09-29T17:01:17.211Z,2.80
2018-09-29T17:02:17.200Z,3.30
2018-09-29T17:03:17.191Z,3.00
2018-09-29T17:04:17.280Z,2.40
2018-09-29T17:05:17.166Z,3.00
2018-09-29T17:06:17.155Z,2.50
2018-09-29T17:07:17.143Z,2.40
2018-09-29T17:08:17.132Z,2.50
2018-09-29T17:09:17.146Z,2.00
2018-09-29T17:10:17.111Z,2.60
2018-09-29T17:11:17.100Z,2.40
2018-09-29T17:12:17.087Z,2.00
2018-09-29T17:13:17.081Z,2.10
2018-09-29T17:14:17.063Z,2.00
2018-09-29T17:15:17.071Z,2.40
2018-09-29T17:16:17.047Z,2.50
2018-09-29T17:17:17.029Z,2.70
2018-09-29T17:18:17.015Z,3.00
2018-09-29T17:19:17.010Z,3.40
2018-09-29T17:20:17.016Z,3.80
2018-09-29T17:21:16.986Z,3.20
2018-09-29T17:22:16.975Z,3.40
2018-09-29T17:23:16.962Z,3.00
2018-09-29T17:24:16.949Z,2.50
2018-09-29T17:25:17.000Z,2.60
2018-09-29T17:26:16.930Z,2.20
2018-09-29T17:27:16.923Z,2.10
2018-09-29T17:28:16.920Z,1.90
2018-09-29T17:29:16.896Z,1.60
2018-09-29T17:30:16.883Z,2.00
2018-09-29T17:31:16.886Z,1.80
2018-09-29T17:32:16.864Z,1.90
2018-09-29T17:33:16.852Z,1.80
2018-09-29T17:34:16.841Z,1.70
2018-09-29T17:35:16.825Z,2.00
2018-09-29T17:36:16.827Z,2.20
2018-09-29T17:37:16.806Z,2.00
2018-09-29T17:38:16.792Z,2.00
2018-09-29T17:39:16.779Z,2.50
2018-09-29T17:40:16.768Z,2.20
2018-09-29T17:41:16.774Z,2.10
2018-09-29T17:42:16.749Z,1.60
2018-09-29T17:43:16.733Z,2.00
2018-09-29T17:44:16.723Z,2.50
2018-09-29T17:45:16.713Z,2.50
2018-09-29T17:46:16.720Z,2.50
2018-09-29T17:47:16.687Z,2.50
2018-09-29T17:48:16.677Z,2.20
2018-09-29T17:49:16.673Z,2.30
2018-09-29T17:50:16.658Z,2.60
2018-09-29T17:51:16.661Z,2.20
2018-09-29T17:52:16.638Z,2.10
2018-09-29T17:53:16.621Z,2.00
2018-09-29T17:54:16.613Z,2.20
2018-09-29T17:55:16.598Z,1.80
2018-09-29T17:56:16.606Z,1.90
2018-09-29T17:57:16.592Z,2.10
2018-09-29T17:58:16.566Z,1.70
2018-09-29T17:59:16.555Z,1.40
2018-09-29T18:00:16.542Z,1.80
2018-09-29T18:01:16.560Z,1.70
2018-09-29T18:02:16.538Z,1.90
2018-09-29T18:03:16.512Z,2.10
2018-09-29T18:04:16.547Z,2.00
2018-09-29T18:05:16.484Z,2.80
2018-09-29T18:06:16.477Z,2.60
2018-09-29T18:07:16.473Z,3.50
2018-09-29T18:08:16.454Z,3.50
2018-09-29T18:09:16.443Z,3.60
2018-09-29T18:10:16.434Z,3.20
2018-09-29T18:11:16.416Z,3.50
2018-09-29T18:12:16.433Z,3.90
2018-09-29T18:13:16.399Z,3.60
2018-09-29T18:14:16.384Z,3.10
2018-09-29T18:15:16.371Z,3.50
2018-09-29T18:16:16.362Z,3.90
2018-09-29T18:17:16.364Z,2.80
2018-09-29T18:18:16.338Z,3.30
2018-09-29T18:19:16.334Z,2.50
2018-09-29T18:20:16.324Z,2.30
2018-09-29T18:21:16.312Z,1.50
2018-09-29T18:22:16.330Z,1.60
2018-09-29T18:23:16.287Z,1.50
2018-09-29T18:24:16.271Z,2.00
2018-09-29T18:25:16.259Z,2.00
2018-09-29T18:26:16.252Z,1.70
2018-09-29T18:27:16.243Z,2.20
2018-09-29T18:28:16.250Z,1.60
2018-09-29T18:29:16.223Z,1.50
2018-09-29T18:30:16.205Z,2.20
2018-09-29T18:31:16.203Z,2.20
2018-09-29T18:32:16.198Z,2.00
2018-09-29T18:33:16.188Z,2.30
2018-09-29T18:34:16.160Z,2.50
2018-09-29T18:35:16.151Z,2.50
2018-09-29T18:36:16.212Z,2.60
2018-09-29T18:37:16.193Z,2.60
2018-09-29T18:38:16.130Z,2.60
2018-09-29T18:39:16.109Z,2.50
2018-09-29T18:40:16.094Z,2.60
2018-09-29T18:41:16.087Z,2.90
2018-09-29T18:42:16.066Z,3.00
2018-09-29T18:43:16.076Z,3.00
2018-09-29T18:44:16.054Z,4.10
2018-09-29T18:45:16.039Z,4.30
2018-09-29T18:46:16.025Z,4.10
2018-09-29T18:47:16.016Z,3.90
2018-09-29T18:48:16.020Z,3.70
2018-09-29T18:49:15.997Z,3.80
2018-09-29T18:50:15.981Z,4.10
2018-09-29T18:51:15.969Z,3.20
2018-09-29T18:52:15.957Z,2.70
2018-09-29T18:53:15.964Z,2.40
2018-09-29T18:54:15.944Z,3.60
2018-09-29T18:55:15.926Z,2.40
2018-09-29T18:56:15.930Z,2.30
2018-09-29T18:57:15.943Z,2.80
2018-09-29T18:58:15.923Z,2.70
2018-09-29T18:59:15.880Z,2.70
2018-09-29T19:00:15.868Z,1.90
2018-09-29T19:01:15.857Z,2.30
2018-09-29T19:02:15.850Z,2.60
2018-09-29T19:03:15.835Z,2.30
2018-09-29T19:04:15.873Z,2.60
2018-09-29T19:05:15.812Z,2.50
2018-09-29T19:06:15.801Z,2.40
2018-09-29T19:07:15.792Z,3.30
2018-09-29T19:08:15.777Z,3.20
2018-09-29T19:09:15.781Z,3.20
2018-09-29T19:10:15.757Z,2.50
2018-09-29T19:11:15.748Z,2.50
2018-09-29T19:12:15.739Z,2.20
2018-09-29T19:13:15.727Z,2.30
2018-09-29T19:14:15.727Z,2.90
2018-09-29T19:15:15.697Z,2.70
2018-09-29T19:16:15.690Z,2.80
2018-09-29T19:17:15.681Z,2.20
2018-09-29T19:18:15.662Z,2.00
2018-09-29T19:19:15.687Z,2.40